sensor_id;sensor_type;location;lat;lon;timestamp;temperature;humidity
43641;DHT22;72791;52.546;13.570;2023-10-09T00:00:08;9.70;99.90
43641;DHT22;72791;52.546;13.570;2023-10-09T00:03:01;9.70;99.90
43641;DHT22;72791;52.546;13.570;2023-10-09T00:05:33;9.70;99.90
43641;DHT22;72791;52.546;13.570;2023-10-09T00:08:15;9.70;99.90
43641;DHT22;72791;52.546;13.570;2023-10-09T00:10:51;9.70;99.90
43641;DHT22;72791;52.546;13.570;2023-10-09T00:13:27;9.70;99.90
43641;DHT22;72791;52.546;13.570;2023-10-09T00:15:56;9.70;99.90
43641;DHT22;72791;52.546;13.570;2023-10-09T00:18:27;9.70;99.90
43641;DHT22;72791;52.546;13.570;2023-10-09T03:39:43;8.90;99.90
43641;DHT22;72791;52.546;13.570;2023-10-09T03:42:12;9.00;99.90
43641;DHT22;72791;52.546;13.570;2023-10-09T03:44:45;9.00;99.90
43641;DHT22;72791;52.546;13.570;2023-10-09T03:47:18;9.00;99.90
43641;DHT22;72791;52.546;13.570;2023-10-09T03:49:50;9.00;99.90
43641;DHT22;72791;52.546;13.570;2023-10-09T03:52:19;9.00;99.90
43641;DHT22;72791;52.546;13.570;2023-10-09T03:54:45;9.00;99.90
43641;DHT22;72791;52.546;13.570;2023-10-09T03:57:18;9.00;99.90
43641;DHT22;72791;52.546;13.570;2023-10-09T03:59:46;9.00;99.90
43641;DHT22;72791;52.546;13.570;2023-10-09T04:02:17;9.00;99.90
43641;DHT22;72791;52.546;13.570;2023-10-09T04:04:43;9.00;99.90
43641;DHT22;72791;52.546;13.570;2023-10-09T04:07:13;9.00;99.90
43641;DHT22;72791;52.546;13.570;2023-10-09T04:09:42;9.00;99.90
43641;DHT22;72791;52.546;13.570;2023-10-09T04:12:11;9.00;99.90
43641;DHT22;72791;52.546;13.570;2023-10-09T04:14:38;9.00;99.90
43641;DHT22;72791;52.546;13.570;2023-10-09T04:17:13;9.00;99.90
43641;DHT22;72791;52.546;13.570;2023-10-09T04:19:48;9.00;99.90
43641;DHT22;72791;52.546;13.570;2023-10-09T04:22:20;9.00;99.90
43641;DHT22;72791;52.546;13.570;2023-10-09T04:24:53;9.00;99.90
43641;DHT22;72791;52.546;13.570;2023-10-09T04:27:18;8.90;99.90
43641;DHT22;72791;52.546;13.570;2023-10-09T04:29:52;8.90;99.90
43641;DHT22;72791;52.546;13.570;2023-10-09T04:32:20;8.90;99.90
43641;DHT22;72791;52.546;13.570;2023-10-09T04:34:53;8.90;99.90
43641;DHT22;72791;52.546;13.570;2023-10-09T04:37:43;8.90;99.90
43641;DHT22;72791;52.546;13.570;2023-10-09T04:40:11;9.00;99.90
43641;DHT22;72791;52.546;13.570;2023-10-09T04:42:56;9.00;99.90
43641;DHT22;72791;52.546;13.570;2023-10-09T04:45:25;9.00;99.90
43641;DHT22;72791;52.546;13.570;2023-10-09T04:48:10;9.00;99.90
43641;DHT22;72791;52.546;13.570;2023-10-09T04:50:36;9.00;99.90
43641;DHT22;72791;52.546;13.570;2023-10-09T04:53:12;9.00;99.90
43641;DHT22;72791;52.546;13.570;2023-10-09T04:55:41;9.00;99.90
43641;DHT22;72791;52.546;13.570;2023-10-09T04:58:20;9.10;99.90
43641;DHT22;72791;52.546;13.570;2023-10-09T05:00:53;9.10;99.90
43641;DHT22;72791;52.546;13.570;2023-10-09T05:03:25;9.10;99.90
43641;DHT22;72791;52.546;13.570;2023-10-09T05:05:55;9.10;99.90
43641;DHT22;72791;52.546;13.570;2023-10-09T05:08:25;9.10;99.90
43641;DHT22;72791;52.546;13.570;2023-10-09T05:11:03;9.10;99.90
43641;DHT22;72791;52.546;13.570;2023-10-09T05:13:33;9.10;99.90
43641;DHT22;72791;52.546;13.570;2023-10-09T05:16:10;9.10;99.90
43641;DHT22;72791;52.546;13.570;2023-10-09T05:18:51;9.10;99.90
43641;DHT22;72791;52.546;13.570;2023-10-09T05:21:33;9.10;99.90
43641;DHT22;72791;52.546;13.570;2023-10-09T05:24:11;9.10;99.90
43641;DHT22;72791;52.546;13.570;2023-10-09T05:26:38;9.10;99.90
43641;DHT22;72791;52.546;13.570;2023-10-09T05:32:03;9.10;99.90
43641;DHT22;72791;52.546;13.570;2023-10-09T05:34:44;9.10;99.90
43641;DHT22;72791;52.546;13.570;2023-10-09T05:37:34;9.20;99.90
43641;DHT22;72791;52.546;13.570;2023-10-09T05:40:03;9.20;99.90
43641;DHT22;72791;52.546;13.570;2023-10-09T05:42:33;9.20;99.90
43641;DHT22;72791;52.546;13.570;2023-10-09T05:45:06;9.20;99.90
43641;DHT22;72791;52.546;13.570;2023-10-09T05:47:53;9.20;99.90
43641;DHT22;72791;52.546;13.570;2023-10-09T05:50:24;9.20;99.90
43641;DHT22;72791;52.546;13.570;2023-10-09T05:52:55;9.30;99.90
43641;DHT22;72791;52.546;13.570;2023-10-09T05:55:22;9.30;99.90
43641;DHT22;72791;52.546;13.570;2023-10-09T05:57:54;9.30;99.90
43641;DHT22;72791;52.546;13.570;2023-10-09T06:00:21;9.30;99.90
43641;DHT22;72791;52.546;13.570;2023-10-09T06:03:05;9.40;99.90
43641;DHT22;72791;52.546;13.570;2023-10-09T06:05:59;9.40;99.90
43641;DHT22;72791;52.546;13.570;2023-10-09T06:08:26;9.40;99.90
43641;DHT22;72791;52.546;13.570;2023-10-09T06:11:04;9.40;99.90
43641;DHT22;72791;52.546;13.570;2023-10-09T06:13:57;9.50;99.90
43641;DHT22;72791;52.546;13.570;2023-10-09T06:16:33;9.50;99.90
43641;DHT22;72791;52.546;13.570;2023-10-09T06:19:05;9.50;99.90
43641;DHT22;72791;52.546;13.570;2023-10-09T06:21:38;9.60;99.90
43641;DHT22;72791;52.546;13.570;2023-10-09T06:24:19;9.60;99.90
43641;DHT22;72791;52.546;13.570;2023-10-09T06:26:46;9.70;99.90
43641;DHT22;72791;52.546;13.570;2023-10-09T06:29:27;9.70;99.90
43641;DHT22;72791;52.546;13.570;2023-10-09T06:32:07;9.80;99.90
43641;DHT22;72791;52.546;13.570;2023-10-09T06:34:46;9.90;99.90
43641;DHT22;72791;52.546;13.570;2023-10-09T06:37:20;10.00;99.90
43641;DHT22;72791;52.546;13.570;2023-10-09T06:39:51;10.10;99.90
43641;DHT22;72791;52.546;13.570;2023-10-09T06:42:27;10.30;99.90
43641;DHT22;72791;52.546;13.570;2023-10-09T06:45:05;10.40;99.90
43641;DHT22;72791;52.546;13.570;2023-10-09T06:47:41;10.50;99.90
43641;DHT22;72791;52.546;13.570;2023-10-09T06:50:11;10.70;99.90
43641;DHT22;72791;52.546;13.570;2023-10-09T06:52:46;10.70;99.90
43641;DHT22;72791;52.546;13.570;2023-10-09T06:55:36;10.70;99.90
43641;DHT22;72791;52.546;13.570;2023-10-09T06:58:21;10.80;99.90
43641;DHT22;72791;52.546;13.570;2023-10-09T07:00:55;10.80;99.90
43641;DHT22;72791;52.546;13.570;2023-10-09T07:03:24;10.90;99.90
43641;DHT22;72791;52.546;13.570;2023-10-09T07:06:11;11.00;99.90
43641;DHT22;72791;52.546;13.570;2023-10-09T07:08:55;11.00;99.90
43641;DHT22;72791;52.546;13.570;2023-10-09T07:11:40;11.00;99.90
43641;DHT22;72791;52.546;13.570;2023-10-09T07:17:04;11.10;99.90
43641;DHT22;72791;52.546;13.570;2023-10-09T07:19:43;11.10;99.90
43641;DHT22;72791;52.546;13.570;2023-10-09T07:22:14;11.10;99.90
43641;DHT22;72791;52.546;13.570;2023-10-09T07:24:50;11.00;99.90
43641;DHT22;72791;52.546;13.570;2023-10-09T07:27:23;11.10;99.90
43641;DHT22;72791;52.546;13.570;2023-10-09T07:30:10;11.30;99.90
43641;DHT22;72791;52.546;13.570;2023-10-09T07:32:59;11.30;99.90
43641;DHT22;72791;52.546;13.570;2023-10-09T07:35:41;11.40;99.90
43641;DHT22;72791;52.546;13.570;2023-10-09T07:38:08;11.40;99.90
43641;DHT22;72791;52.546;13.570;2023-10-09T07:40:38;11.50;99.90
43641;DHT22;72791;52.546;13.570;2023-10-09T07:43:24;11.60;99.90
43641;DHT22;72791;52.546;13.570;2023-10-09T07:45:57;11.60;99.90
43641;DHT22;72791;52.546;13.570;2023-10-09T07:48:22;11.60;99.90
43641;DHT22;72791;52.546;13.570;2023-10-09T07:50:51;11.60;99.90
43641;DHT22;72791;52.546;13.570;2023-10-09T07:53:25;11.50;99.90
43641;DHT22;72791;52.546;13.570;2023-10-09T07:55:54;11.40;99.90
43641;DHT22;72791;52.546;13.570;2023-10-09T07:58:32;11.40;99.90
43641;DHT22;72791;52.546;13.570;2023-10-09T08:01:12;11.20;99.90
43641;DHT22;72791;52.546;13.570;2023-10-09T08:04:10;11.20;99.90
43641;DHT22;72791;52.546;13.570;2023-10-09T08:06:46;11.10;99.90
43641;DHT22;72791;52.546;13.570;2023-10-09T08:09:13;11.10;99.90
43641;DHT22;72791;52.546;13.570;2023-10-09T08:11:46;11.20;99.90
43641;DHT22;72791;52.546;13.570;2023-10-09T08:14:12;11.20;99.90
43641;DHT22;72791;52.546;13.570;2023-10-09T08:16:59;11.20;99.90
43641;DHT22;72791;52.546;13.570;2023-10-09T08:19:49;11.10;99.90
43641;DHT22;72791;52.546;13.570;2023-10-09T08:22:37;11.00;99.90
43641;DHT22;72791;52.546;13.570;2023-10-09T08:25:13;11.00;99.90
43641;DHT22;72791;52.546;13.570;2023-10-09T08:27:55;11.00;99.90
43641;DHT22;72791;52.546;13.570;2023-10-09T08:30:24;10.90;99.90
43641;DHT22;72791;52.546;13.570;2023-10-09T09:39:27;13.10;99.90
43641;DHT22;72791;52.546;13.570;2023-10-09T09:41:59;13.00;99.90
43641;DHT22;72791;52.546;13.570;2023-10-09T09:44:34;13.10;99.90
43641;DHT22;72791;52.546;13.570;2023-10-09T09:47:09;13.30;99.90
43641;DHT22;72791;52.546;13.570;2023-10-09T09:49:42;13.50;99.90
43641;DHT22;72791;52.546;13.570;2023-10-09T09:52:09;13.50;99.90
43641;DHT22;72791;52.546;13.570;2023-10-09T09:54:38;13.50;99.90
43641;DHT22;72791;52.546;13.570;2023-10-09T09:57:06;13.40;99.90
43641;DHT22;72791;52.546;13.570;2023-10-09T09:59:40;13.20;99.90
43641;DHT22;72791;52.546;13.570;2023-10-09T10:02:23;13.20;99.90
43641;DHT22;72791;52.546;13.570;2023-10-09T10:04:54;13.40;99.90
43641;DHT22;72791;52.546;13.570;2023-10-09T10:07:22;13.50;99.90
43641;DHT22;72791;52.546;13.570;2023-10-09T10:09:50;13.40;99.90
43641;DHT22;72791;52.546;13.570;2023-10-09T10:12:49;13.50;99.90
43641;DHT22;72791;52.546;13.570;2023-10-09T10:15:58;13.30;99.90
43641;DHT22;72791;52.546;13.570;2023-10-09T10:18:24;13.20;99.90
43641;DHT22;72791;52.546;13.570;2023-10-09T10:21:11;13.10;99.90
43641;DHT22;72791;52.546;13.570;2023-10-09T10:23:42;13.10;99.90
43641;DHT22;72791;52.546;13.570;2023-10-09T10:26:21;13.20;99.90
43641;DHT22;72791;52.546;13.570;2023-10-09T10:29:21;13.30;99.90
43641;DHT22;72791;52.546;13.570;2023-10-09T10:34:52;13.50;99.90
43641;DHT22;72791;52.546;13.570;2023-10-09T10:37:37;13.50;99.90
43641;DHT22;72791;52.546;13.570;2023-10-09T10:40:10;13.60;99.90
43641;DHT22;72791;52.546;13.570;2023-10-09T10:42:49;13.80;99.90
43641;DHT22;72791;52.546;13.570;2023-10-09T10:45:37;13.90;99.90
43641;DHT22;72791;52.546;13.570;2023-10-09T10:48:09;14.00;99.90
43641;DHT22;72791;52.546;13.570;2023-10-09T10:50:49;13.90;99.90
43641;DHT22;72791;52.546;13.570;2023-10-09T10:53:23;14.10;99.90
43641;DHT22;72791;52.546;13.570;2023-10-09T10:56:00;14.20;99.90
43641;DHT22;72791;52.546;13.570;2023-10-09T10:58:38;14.30;99.90
43641;DHT22;72791;52.546;13.570;2023-10-09T11:01:13;14.20;99.90
43641;DHT22;72791;52.546;13.570;2023-10-09T11:03:41;14.30;99.90
43641;DHT22;72791;52.546;13.570;2023-10-09T11:06:31;14.30;99.90
43641;DHT22;72791;52.546;13.570;2023-10-09T11:09:08;14.40;99.90
43641;DHT22;72791;52.546;13.570;2023-10-09T11:12:04;14.40;99.90
43641;DHT22;72791;52.546;13.570;2023-10-09T11:14:48;14.40;99.90
43641;DHT22;72791;52.546;13.570;2023-10-09T11:17:35;14.40;99.90
43641;DHT22;72791;52.546;13.570;2023-10-09T11:20:03;14.40;99.90
43641;DHT22;72791;52.546;13.570;2023-10-09T11:22:55;14.50;99.90
43641;DHT22;72791;52.546;13.570;2023-10-09T11:25:43;14.50;99.90
43641;DHT22;72791;52.546;13.570;2023-10-09T11:28:20;14.60;99.90
43641;DHT22;72791;52.546;13.570;2023-10-09T11:31:09;14.60;99.90
43641;DHT22;72791;52.546;13.570;2023-10-09T11:33:52;14.50;99.90
43641;DHT22;72791;52.546;13.570;2023-10-09T11:36:20;14.40;99.90
43641;DHT22;72791;52.546;13.570;2023-10-09T11:39:01;14.30;99.90
43641;DHT22;72791;52.546;13.570;2023-10-09T11:41:41;14.50;99.90
43641;DHT22;72791;52.546;13.570;2023-10-09T11:44:07;14.90;99.90
43641;DHT22;72791;52.546;13.570;2023-10-09T11:47:00;15.10;99.90
43641;DHT22;72791;52.546;13.570;2023-10-09T11:49:55;15.30;99.90
43641;DHT22;72791;52.546;13.570;2023-10-09T11:52:57;15.60;99.90
43641;DHT22;72791;52.546;13.570;2023-10-09T11:55:35;15.60;99.90
43641;DHT22;72791;52.546;13.570;2023-10-09T11:58:02;15.50;99.90
43641;DHT22;72791;52.546;13.570;2023-10-09T12:00:32;15.40;99.90
43641;DHT22;72791;52.546;13.570;2023-10-09T12:03:10;15.30;99.90
43641;DHT22;72791;52.546;13.570;2023-10-09T12:05:35;15.20;99.90
43641;DHT22;72791;52.546;13.570;2023-10-09T12:08:03;15.40;99.90
43641;DHT22;72791;52.546;13.570;2023-10-09T12:10:34;15.40;99.90
43641;DHT22;72791;52.546;13.570;2023-10-09T12:13:00;15.30;99.90
43641;DHT22;72791;52.546;13.570;2023-10-09T12:15:31;15.40;99.90
43641;DHT22;72791;52.546;13.570;2023-10-09T12:18:06;15.40;99.90
43641;DHT22;72791;52.546;13.570;2023-10-09T12:20:35;15.50;99.90
43641;DHT22;72791;52.546;13.570;2023-10-09T12:23:02;15.60;99.90
43641;DHT22;72791;52.546;13.570;2023-10-09T12:25:32;15.70;99.90
43641;DHT22;72791;52.546;13.570;2023-10-09T12:28:04;15.70;99.90
43641;DHT22;72791;52.546;13.570;2023-10-09T12:30:31;15.80;99.90
43641;DHT22;72791;52.546;13.570;2023-10-09T12:32:57;15.70;99.90
43641;DHT22;72791;52.546;13.570;2023-10-09T12:35:27;15.70;99.90
43641;DHT22;72791;52.546;13.570;2023-10-09T12:37:59;15.50;99.90
43641;DHT22;72791;52.546;13.570;2023-10-09T12:40:26;15.30;99.90
43641;DHT22;72791;52.546;13.570;2023-10-09T12:42:57;15.00;99.90
43641;DHT22;72791;52.546;13.570;2023-10-09T12:45:26;15.00;99.90
43641;DHT22;72791;52.546;13.570;2023-10-09T12:47:56;15.00;99.90
43641;DHT22;72791;52.546;13.570;2023-10-09T12:50:25;15.10;99.90
43641;DHT22;72791;52.546;13.570;2023-10-09T12:52:57;15.10;99.90
43641;DHT22;72791;52.546;13.570;2023-10-09T12:55:39;15.00;99.90
43641;DHT22;72791;52.546;13.570;2023-10-09T12:58:10;14.90;99.90
43641;DHT22;72791;52.546;13.570;2023-10-09T13:00:40;14.80;99.90
43641;DHT22;72791;52.546;13.570;2023-10-09T13:03:10;14.70;99.90
43641;DHT22;72791;52.546;13.570;2023-10-09T13:05:52;14.30;99.90
43641;DHT22;72791;52.546;13.570;2023-10-09T13:08:23;14.20;99.90
43641;DHT22;72791;52.546;13.570;2023-10-09T13:10:52;14.20;99.90
43641;DHT22;72791;52.546;13.570;2023-10-09T13:13:27;14.40;99.90
43641;DHT22;72791;52.546;13.570;2023-10-09T13:16:21;14.60;99.90
43641;DHT22;72791;52.546;13.570;2023-10-09T13:18:51;14.90;99.90
43641;DHT22;72791;52.546;13.570;2023-10-09T13:21:25;14.90;99.90
43641;DHT22;72791;52.546;13.570;2023-10-09T13:23:58;15.00;99.90
43641;DHT22;72791;52.546;13.570;2023-10-09T13:26:25;15.10;99.90
43641;DHT22;72791;52.546;13.570;2023-10-09T13:29:02;15.20;99.90
43641;DHT22;72791;52.546;13.570;2023-10-09T13:31:30;15.20;99.90
43641;DHT22;72791;52.546;13.570;2023-10-09T13:33:59;15.20;99.90
43641;DHT22;72791;52.546;13.570;2023-10-09T13:36:26;15.20;99.90
43641;DHT22;72791;52.546;13.570;2023-10-09T13:38:55;15.10;99.90
43641;DHT22;72791;52.546;13.570;2023-10-09T13:41:24;15.00;99.90
43641;DHT22;72791;52.546;13.570;2023-10-09T13:43:56;14.70;99.90
43641;DHT22;72791;52.546;13.570;2023-10-09T13:46:26;14.40;99.90
43641;DHT22;72791;52.546;13.570;2023-10-09T13:48:54;14.20;99.90
43641;DHT22;72791;52.546;13.570;2023-10-09T13:51:20;14.20;99.90
43641;DHT22;72791;52.546;13.570;2023-10-09T13:53:49;14.30;99.90
43641;DHT22;72791;52.546;13.570;2023-10-09T13:56:19;14.30;99.90
43641;DHT22;72791;52.546;13.570;2023-10-09T13:58:50;14.30;99.90
43641;DHT22;72791;52.546;13.570;2023-10-09T14:01:20;14.20;99.90
43641;DHT22;72791;52.546;13.570;2023-10-09T14:04:01;14.00;99.90
43641;DHT22;72791;52.546;13.570;2023-10-09T14:06:27;13.90;99.90
43641;DHT22;72791;52.546;13.570;2023-10-09T14:08:59;14.00;99.90
43641;DHT22;72791;52.546;13.570;2023-10-09T14:11:25;14.00;99.90
43641;DHT22;72791;52.546;13.570;2023-10-09T14:13:54;13.90;99.90
43641;DHT22;72791;52.546;13.570;2023-10-09T14:16:21;13.80;99.90
43641;DHT22;72791;52.546;13.570;2023-10-09T14:18:57;13.70;99.90
43641;DHT22;72791;52.546;13.570;2023-10-09T14:21:25;13.60;99.90
43641;DHT22;72791;52.546;13.570;2023-10-09T14:23:53;13.50;99.90
43641;DHT22;72791;52.546;13.570;2023-10-09T14:26:27;13.60;99.90
43641;DHT22;72791;52.546;13.570;2023-10-09T14:28:56;13.60;99.90
43641;DHT22;72791;52.546;13.570;2023-10-09T14:31:27;13.50;99.90
43641;DHT22;72791;52.546;13.570;2023-10-09T14:33:57;13.60;99.90
43641;DHT22;72791;52.546;13.570;2023-10-09T14:36:23;13.70;99.90
43641;DHT22;72791;52.546;13.570;2023-10-09T14:38:51;13.80;99.90
43641;DHT22;72791;52.546;13.570;2023-10-09T14:41:22;13.80;99.90
43641;DHT22;72791;52.546;13.570;2023-10-09T14:43:52;14.00;99.90
43641;DHT22;72791;52.546;13.570;2023-10-09T14:46:19;14.00;99.90
43641;DHT22;72791;52.546;13.570;2023-10-09T14:48:52;14.00;99.90
43641;DHT22;72791;52.546;13.570;2023-10-09T14:51:22;13.90;99.90
43641;DHT22;72791;52.546;13.570;2023-10-09T14:53:56;13.90;99.90
43641;DHT22;72791;52.546;13.570;2023-10-09T14:56:28;13.70;99.90
43641;DHT22;72791;52.546;13.570;2023-10-09T14:59:00;13.60;99.90
43641;DHT22;72791;52.546;13.570;2023-10-09T15:01:30;13.60;99.90
43641;DHT22;72791;52.546;13.570;2023-10-09T15:03:57;13.50;99.90
43641;DHT22;72791;52.546;13.570;2023-10-09T15:06:25;13.40;99.90
43641;DHT22;72791;52.546;13.570;2023-10-09T15:08:54;13.30;99.90
43641;DHT22;72791;52.546;13.570;2023-10-09T15:11:27;13.10;99.90
43641;DHT22;72791;52.546;13.570;2023-10-09T15:13:55;13.00;99.90
43641;DHT22;72791;52.546;13.570;2023-10-09T15:16:23;12.90;99.90
43641;DHT22;72791;52.546;13.570;2023-10-09T15:18:53;12.80;99.90
43641;DHT22;72791;52.546;13.570;2023-10-09T15:21:21;12.80;99.90
43641;DHT22;72791;52.546;13.570;2023-10-09T15:23:53;12.80;99.90
43641;DHT22;72791;52.546;13.570;2023-10-09T15:26:20;12.70;99.90
43641;DHT22;72791;52.546;13.570;2023-10-09T15:28:48;12.60;99.90
43641;DHT22;72791;52.546;13.570;2023-10-09T15:31:15;12.60;99.90
43641;DHT22;72791;52.546;13.570;2023-10-09T15:33:42;12.60;99.90
43641;DHT22;72791;52.546;13.570;2023-10-09T15:36:15;12.50;99.90
43641;DHT22;72791;52.546;13.570;2023-10-09T15:38:42;12.50;99.90
43641;DHT22;72791;52.546;13.570;2023-10-09T15:41:08;12.40;99.90
43641;DHT22;72791;52.546;13.570;2023-10-09T15:43:38;12.30;99.90
43641;DHT22;72791;52.546;13.570;2023-10-09T15:46:13;12.30;99.90
43641;DHT22;72791;52.546;13.570;2023-10-09T15:48:43;12.20;99.90
43641;DHT22;72791;52.546;13.570;2023-10-09T15:51:16;12.20;99.90
43641;DHT22;72791;52.546;13.570;2023-10-09T15:53:43;12.10;99.90
43641;DHT22;72791;52.546;13.570;2023-10-09T15:56:10;12.10;99.90
43641;DHT22;72791;52.546;13.570;2023-10-09T15:58:41;12.00;99.90
43641;DHT22;72791;52.546;13.570;2023-10-09T16:01:14;11.90;99.90
43641;DHT22;72791;52.546;13.570;2023-10-09T16:03:44;11.90;99.90
43641;DHT22;72791;52.546;13.570;2023-10-09T16:06:10;11.80;99.90
43641;DHT22;72791;52.546;13.570;2023-10-09T16:08:40;11.80;99.90
43641;DHT22;72791;52.546;13.570;2023-10-09T16:11:07;11.80;99.90
43641;DHT22;72791;52.546;13.570;2023-10-09T16:13:34;11.80;99.90
43641;DHT22;72791;52.546;13.570;2023-10-09T16:16:00;11.70;99.90
43641;DHT22;72791;52.546;13.570;2023-10-09T16:18:27;11.70;99.90
43641;DHT22;72791;52.546;13.570;2023-10-09T16:20:56;11.70;99.90
43641;DHT22;72791;52.546;13.570;2023-10-09T16:23:22;11.70;99.90
43641;DHT22;72791;52.546;13.570;2023-10-09T16:25:53;11.70;99.90
43641;DHT22;72791;52.546;13.570;2023-10-09T16:28:18;11.70;99.90
43641;DHT22;72791;52.546;13.570;2023-10-09T16:30:44;11.60;99.90
43641;DHT22;72791;52.546;13.570;2023-10-09T16:33:10;11.60;99.90
43641;DHT22;72791;52.546;13.570;2023-10-09T16:35:37;11.60;99.90
43641;DHT22;72791;52.546;13.570;2023-10-09T16:38:04;11.60;99.90
43641;DHT22;72791;52.546;13.570;2023-10-09T16:40:37;11.60;99.90
43641;DHT22;72791;52.546;13.570;2023-10-09T16:43:03;11.50;99.90
43641;DHT22;72791;52.546;13.570;2023-10-09T16:45:31;11.40;99.90
43641;DHT22;72791;52.546;13.570;2023-10-09T16:48:01;11.40;99.90
43641;DHT22;72791;52.546;13.570;2023-10-09T16:50:31;11.40;99.90
43641;DHT22;72791;52.546;13.570;2023-10-09T16:52:57;11.40;99.90
43641;DHT22;72791;52.546;13.570;2023-10-09T16:55:23;11.40;99.90
43641;DHT22;72791;52.546;13.570;2023-10-09T16:57:52;11.30;99.90
43641;DHT22;72791;52.546;13.570;2023-10-09T17:00:20;11.30;99.90
43641;DHT22;72791;52.546;13.570;2023-10-09T17:03:02;11.30;99.90
43641;DHT22;72791;52.546;13.570;2023-10-09T17:05:35;11.30;99.90
43641;DHT22;72791;52.546;13.570;2023-10-09T17:08:21;11.30;99.90
43641;DHT22;72791;52.546;13.570;2023-10-09T17:10:48;11.30;99.90
43641;DHT22;72791;52.546;13.570;2023-10-09T17:13:19;11.20;99.90
43641;DHT22;72791;52.546;13.570;2023-10-09T17:15:51;11.20;99.90
43641;DHT22;72791;52.546;13.570;2023-10-09T17:18:24;11.20;99.90
43641;DHT22;72791;52.546;13.570;2023-10-09T17:20:52;11.20;99.90
43641;DHT22;72791;52.546;13.570;2023-10-09T17:23:17;11.20;99.90
43641;DHT22;72791;52.546;13.570;2023-10-09T17:25:45;11.20;99.90
43641;DHT22;72791;52.546;13.570;2023-10-09T17:28:13;11.20;99.90
43641;DHT22;72791;52.546;13.570;2023-10-09T17:30:45;11.10;99.90
43641;DHT22;72791;52.546;13.570;2023-10-09T17:33:17;11.10;99.90
43641;DHT22;72791;52.546;13.570;2023-10-09T17:35:48;11.10;99.90
43641;DHT22;72791;52.546;13.570;2023-10-09T17:38:15;11.10;99.90
43641;DHT22;72791;52.546;13.570;2023-10-09T17:40:49;11.10;99.90
43641;DHT22;72791;52.546;13.570;2023-10-09T17:43:22;11.10;99.90
43641;DHT22;72791;52.546;13.570;2023-10-09T17:45:48;11.10;99.90
43641;DHT22;72791;52.546;13.570;2023-10-09T17:48:15;11.10;99.90
43641;DHT22;72791;52.546;13.570;2023-10-09T17:50:44;11.10;99.90
43641;DHT22;72791;52.546;13.570;2023-10-09T17:53:10;11.10;99.90
43641;DHT22;72791;52.546;13.570;2023-10-09T17:55:36;11.10;99.90
43641;DHT22;72791;52.546;13.570;2023-10-09T17:58:03;11.10;99.90
43641;DHT22;72791;52.546;13.570;2023-10-09T18:00:53;11.10;99.90
43641;DHT22;72791;52.546;13.570;2023-10-09T18:03:19;11.10;99.90
43641;DHT22;72791;52.546;13.570;2023-10-09T18:05:46;11.00;99.90
43641;DHT22;72791;52.546;13.570;2023-10-09T18:08:12;11.00;99.90
43641;DHT22;72791;52.546;13.570;2023-10-09T18:10:42;11.00;99.90
43641;DHT22;72791;52.546;13.570;2023-10-09T18:13:12;10.90;99.90
43641;DHT22;72791;52.546;13.570;2023-10-09T18:15:47;10.90;99.90
43641;DHT22;72791;52.546;13.570;2023-10-09T18:18:13;10.90;99.90
43641;DHT22;72791;52.546;13.570;2023-10-09T18:20:46;10.80;99.90
43641;DHT22;72791;52.546;13.570;2023-10-09T18:23:12;10.80;99.90
43641;DHT22;72791;52.546;13.570;2023-10-09T18:25:38;10.80;99.90
43641;DHT22;72791;52.546;13.570;2023-10-09T18:28:06;10.70;99.90
43641;DHT22;72791;52.546;13.570;2023-10-09T18:30:36;10.70;99.90
43641;DHT22;72791;52.546;13.570;2023-10-09T18:33:08;10.70;99.90
43641;DHT22;72791;52.546;13.570;2023-10-09T18:35:36;10.70;99.90
43641;DHT22;72791;52.546;13.570;2023-10-09T18:38:04;10.70;99.90
43641;DHT22;72791;52.546;13.570;2023-10-09T18:40:31;10.70;99.90
43641;DHT22;72791;52.546;13.570;2023-10-09T18:42:58;10.70;99.90
43641;DHT22;72791;52.546;13.570;2023-10-09T18:45:24;10.70;99.90
43641;DHT22;72791;52.546;13.570;2023-10-09T18:47:51;10.70;99.90
43641;DHT22;72791;52.546;13.570;2023-10-09T18:50:19;10.80;99.90
43641;DHT22;72791;52.546;13.570;2023-10-09T18:52:45;10.80;99.90
43641;DHT22;72791;52.546;13.570;2023-10-09T18:55:14;10.80;99.90
43641;DHT22;72791;52.546;13.570;2023-10-09T18:57:40;10.80;99.90
43641;DHT22;72791;52.546;13.570;2023-10-09T19:00:07;10.80;99.90
43641;DHT22;72791;52.546;13.570;2023-10-09T19:02:37;10.80;99.90
43641;DHT22;72791;52.546;13.570;2023-10-09T19:05:06;10.80;99.90
43641;DHT22;72791;52.546;13.570;2023-10-09T19:07:34;10.80;99.90
43641;DHT22;72791;52.546;13.570;2023-10-09T19:10:02;10.80;99.90
43641;DHT22;72791;52.546;13.570;2023-10-09T19:12:28;10.80;99.90
43641;DHT22;72791;52.546;13.570;2023-10-09T19:14:54;10.70;99.90
43641;DHT22;72791;52.546;13.570;2023-10-09T19:17:20;10.70;99.90
43641;DHT22;72791;52.546;13.570;2023-10-09T19:19:46;10.80;99.90
43641;DHT22;72791;52.546;13.570;2023-10-09T19:22:13;10.80;99.90
43641;DHT22;72791;52.546;13.570;2023-10-09T19:24:41;10.70;99.90
43641;DHT22;72791;52.546;13.570;2023-10-09T19:27:07;10.70;99.90
43641;DHT22;72791;52.546;13.570;2023-10-09T19:29:36;10.70;99.90
43641;DHT22;72791;52.546;13.570;2023-10-09T19:32:01;10.70;99.90
43641;DHT22;72791;52.546;13.570;2023-10-09T19:34:28;10.70;99.90
43641;DHT22;72791;52.546;13.570;2023-10-09T19:36:54;10.60;99.90
43641;DHT22;72791;52.546;13.570;2023-10-09T19:39:20;10.60;99.90
43641;DHT22;72791;52.546;13.570;2023-10-09T19:41:46;10.70;99.90
43641;DHT22;72791;52.546;13.570;2023-10-09T19:44:14;10.70;99.90
43641;DHT22;72791;52.546;13.570;2023-10-09T19:46:42;10.70;99.90
43641;DHT22;72791;52.546;13.570;2023-10-09T19:49:09;10.70;99.90
43641;DHT22;72791;52.546;13.570;2023-10-09T19:51:35;10.70;99.90
43641;DHT22;72791;52.546;13.570;2023-10-09T19:54:00;10.70;99.90
43641;DHT22;72791;52.546;13.570;2023-10-09T19:56:26;10.70;99.90
43641;DHT22;72791;52.546;13.570;2023-10-09T19:58:52;10.70;99.90
43641;DHT22;72791;52.546;13.570;2023-10-09T20:01:19;10.70;99.90
43641;DHT22;72791;52.546;13.570;2023-10-09T20:03:45;10.70;99.90
43641;DHT22;72791;52.546;13.570;2023-10-09T20:06:12;10.70;99.90
43641;DHT22;72791;52.546;13.570;2023-10-09T20:08:41;10.80;99.90
43641;DHT22;72791;52.546;13.570;2023-10-09T20:11:08;10.80;99.90
43641;DHT22;72791;52.546;13.570;2023-10-09T20:13:38;10.80;99.90
43641;DHT22;72791;52.546;13.570;2023-10-09T20:16:04;10.70;99.90
43641;DHT22;72791;52.546;13.570;2023-10-09T20:18:34;10.70;99.90
43641;DHT22;72791;52.546;13.570;2023-10-09T20:21:02;10.80;99.90
43641;DHT22;72791;52.546;13.570;2023-10-09T20:23:32;10.80;99.90
43641;DHT22;72791;52.546;13.570;2023-10-09T20:26:00;10.80;99.90